Time;durP1;ratioP1;P1;durP2;ratioP2;P2;SDS_P1;SDS_P2;PMS_P1;PMS_P2;Temp;Humidity;BMP_temperature;BMP_pressure;BME280_temperature;BME280_humidity;BME280_pressure;Samples;Min_cycle;Max_cycle;Signal;HPM_P1;HPM_P2
2023/04/23 00:00:56;;;;;;;10.73;6.43;;;;;;;;;;5050033;28;20033;-73
2023/04/23 00:03:22;;;;;;;11.77;6.60;;;;;;;;;;5049837;28;20025;-72
2023/04/23 00:05:51;;;;;;;16.17;8.13;;;;;;;;;;5053861;28;20017;-74
2023/04/23 00:08:18;;;;;;;15.70;8.18;;;;;;;;;;5054058;28;20055;-73
2023/04/23 00:10:44;;;;;;;12.40;7.45;;;;;;;;;;5054071;28;20025;-73
2023/04/23 00:13:10;;;;;;;9.75;7.18;;;;;;;;;;5053897;28;20054;-73
2023/04/23 00:15:36;;;;;;;10.23;6.72;;;;;;;;;;5053864;28;20102;-74
2023/04/23 00:18:02;;;;;;;10.60;6.68;;;;;;;;;;5053704;28;20021;-74
2023/04/23 00:20:29;;;;;;;13.00;7.07;;;;;;;;;;5053681;28;20381;-72
2023/04/23 00:22:55;;;;;;;13.57;7.70;;;;;;;;;;5053367;28;20444;-74
2023/04/23 00:25:21;;;;;;;13.95;7.95;;;;;;;;;;5053717;28;20471;-73
2023/04/23 00:27:47;;;;;;;11.93;7.47;;;;;;;;;;5054483;28;20036;-73
2023/04/23 00:30:13;;;;;;;17.38;7.68;;;;;;;;;;5053640;28;20021;-72
2023/04/23 00:32:39;;;;;;;11.85;8.65;;;;;;;;;;5053570;28;20025;-73
2023/04/23 00:35:06;;;;;;;14.15;9.30;;;;;;;;;;5053504;28;20495;-73
2023/04/23 00:37:32;;;;;;;13.05;8.25;;;;;;;;;;5053793;28;20368;-73
2023/04/23 00:39:58;;;;;;;11.60;8.60;;;;;;;;;;5053380;28;20112;-71
2023/04/23 00:42:24;;;;;;;13.40;9.50;;;;;;;;;;5053165;28;20107;-73
2023/04/23 00:44:50;;;;;;;15.02;10.18;;;;;;;;;;5053431;28;20100;-73
2023/04/23 00:47:16;;;;;;;14.32;10.02;;;;;;;;;;5053397;28;20025;-73
2023/04/23 00:49:42;;;;;;;13.38;10.15;;;;;;;;;;5053091;28;20048;-72
2023/04/23 00:52:08;;;;;;;18.05;10.48;;;;;;;;;;5052905;28;20060;-72
2023/04/23 00:54:34;;;;;;;16.58;11.05;;;;;;;;;;5053019;28;20079;-73
2023/04/23 00:57:00;;;;;;;17.33;11.95;;;;;;;;;;5053032;28;20612;-73
2023/04/23 00:59:27;;;;;;;15.25;11.63;;;;;;;;;;5052950;28;20036;-74
2023/04/23 01:01:53;;;;;;;18.23;12.00;;;;;;;;;;5052663;28;20425;-73
2023/04/23 01:04:21;;;;;;;17.75;12.32;;;;;;;;;;5052969;28;20033;-72
2023/04/23 01:06:47;;;;;;;15.90;12.40;;;;;;;;;;5053150;28;20036;-72
2023/04/23 01:09:13;;;;;;;20.00;13.60;;;;;;;;;;5053150;28;20032;-72
2023/04/23 01:11:41;;;;;;;15.88;11.35;;;;;;;;;;5053956;28;20035;-73
2023/04/23 01:14:08;;;;;;;16.67;12.85;;;;;;;;;;5052913;28;20372;-72
2023/04/23 01:16:35;;;;;;;20.83;13.07;;;;;;;;;;5052891;28;20025;-72
2023/04/23 01:19:01;;;;;;;19.55;13.48;;;;;;;;;;5052890;28;20028;-72
2023/04/23 01:21:28;;;;;;;20.88;13.52;;;;;;;;;;5050088;28;20023;-73
2023/04/23 01:23:55;;;;;;;17.83;13.23;;;;;;;;;;5052503;28;20037;-72
2023/04/23 01:26:22;;;;;;;23.90;14.98;;;;;;;;;;5052676;28;20105;-72
2023/04/23 01:28:48;;;;;;;21.30;15.10;;;;;;;;;;5052656;28;20021;-72
2023/04/23 01:31:14;;;;;;;20.50;14.60;;;;;;;;;;5052939;28;20029;-71
2023/04/23 01:33:40;;;;;;;21.60;14.70;;;;;;;;;;5052304;28;20032;-72
2023/04/23 01:36:07;;;;;;;22.73;14.60;;;;;;;;;;5052387;28;20097;-73
2023/04/23 01:38:35;;;;;;;19.38;14.05;;;;;;;;;;5052129;28;20056;-73
2023/04/23 01:41:01;;;;;;;23.80;15.15;;;;;;;;;;5052183;28;20026;-72
2023/04/23 01:43:28;;;;;;;22.73;15.30;;;;;;;;;;5051238;28;20079;-72
2023/04/23 01:45:54;;;;;;;19.77;14.57;;;;;;;;;;5050050;28;20040;-72
2023/04/23 01:48:20;;;;;;;46.30;29.27;;;;;;;;;;5051809;28;20438;-74
2023/04/23 01:50:46;;;;;;;44.67;33.97;;;;;;;;;;5052004;28;20029;-73
2023/04/23 01:53:12;;;;;;;49.08;36.00;;;;;;;;;;5051288;28;20028;-72
2023/04/23 01:55:38;;;;;;;55.25;38.28;;;;;;;;;;5051965;28;20055;-73
2023/04/23 01:58:04;;;;;;;52.70;39.53;;;;;;;;;;5051996;28;20082;-72
2023/04/23 02:00:31;;;;;;;60.38;41.35;;;;;;;;;;5051800;28;20021;-72
2023/04/23 02:02:56;;;;;;;56.85;39.72;;;;;;;;;;5051418;28;20402;-72
2023/04/23 02:05:23;;;;;;;56.38;39.67;;;;;;;;;;5051651;28;20032;-72
2023/04/23 02:07:50;;;;;;;55.10;39.75;;;;;;;;;;5051419;28;20032;-71
2023/04/23 02:10:17;;;;;;;51.45;37.22;;;;;;;;;;5051573;28;20048;-71
2023/04/23 02:12:43;;;;;;;51.20;37.70;;;;;;;;;;5051458;28;20021;-71
2023/04/23 02:15:10;;;;;;;53.10;36.58;;;;;;;;;;5051349;28;20029;-71
2023/04/23 02:17:38;;;;;;;53.28;37.47;;;;;;;;;;5051540;28;20106;-72
2023/04/23 02:20:05;;;;;;;50.90;36.78;;;;;;;;;;5051615;28;20099;-72
2023/04/23 02:22:31;;;;;;;53.45;36.45;;;;;;;;;;5051637;28;20140;-72
2023/04/23 02:24:58;;;;;;;54.67;37.65;;;;;;;;;;5051452;28;20036;-72
2023/04/23 02:27:24;;;;;;;55.70;38.38;;;;;;;;;;5051479;28;20108;-72
2023/04/23 02:29:51;;;;;;;53.97;38.50;;;;;;;;;;5051223;28;20021;-72
2023/04/23 02:32:17;;;;;;;62.30;40.00;;;;;;;;;;5051347;28;20063;-73
2023/04/23 02:34:43;;;;;;;61.58;40.85;;;;;;;;;;5052633;28;20055;-75
2023/04/23 02:37:09;;;;;;;62.58;41.22;;;;;;;;;;5050352;28;20471;-72
2023/04/23 02:39:37;;;;;;;63.92;41.22;;;;;;;;;;5051489;28;20109;-72
2023/04/23 02:42:03;;;;;;;61.50;38.70;;;;;;;;;;5051420;28;20017;-71
2023/04/23 02:44:29;;;;;;;61.13;38.78;;;;;;;;;;5051700;28;20028;-71
2023/04/23 02:46:55;;;;;;;60.35;37.30;;;;;;;;;;5051337;28;20121;-71
2023/04/23 02:49:21;;;;;;;60.33;37.45;;;;;;;;;;5051352;28;20021;-72
2023/04/23 02:51:47;;;;;;;62.38;35.15;;;;;;;;;;5051239;28;20284;-71
2023/04/23 02:54:13;;;;;;;56.38;33.63;;;;;;;;;;5053973;28;20025;-72
2023/04/23 02:56:39;;;;;;;55.30;33.45;;;;;;;;;;5055289;28;20024;-71
2023/04/23 02:59:06;;;;;;;55.85;31.80;;;;;;;;;;5055169;28;20023;-72
2023/04/23 03:01:32;;;;;;;52.00;31.85;;;;;;;;;;5055240;28;20048;-72
2023/04/23 03:03:58;;;;;;;49.63;31.98;;;;;;;;;;5054942;28;20025;-72
2023/04/23 03:06:24;;;;;;;51.58;30.88;;;;;;;;;;5055348;28;20025;-72
2023/04/23 03:08:50;;;;;;;51.55;31.77;;;;;;;;;;5055177;28;20033;-71
2023/04/23 03:11:16;;;;;;;48.80;29.70;;;;;;;;;;5055152;28;20487;-72
2023/04/23 03:13:42;;;;;;;50.92;29.15;;;;;;;;;;5054708;28;20413;-72
2023/04/23 03:16:08;;;;;;;44.35;27.27;;;;;;;;;;5055077;28;20029;-72
2023/04/23 03:18:34;;;;;;;42.70;25.30;;;;;;;;;;5054835;28;20552;-72
2023/04/23 03:21:00;;;;;;;47.13;26.48;;;;;;;;;;5054906;28;20025;-72
2023/04/23 03:23:26;;;;;;;39.47;25.58;;;;;;;;;;5054445;28;20033;-73
2023/04/23 03:25:52;;;;;;;41.67;24.83;;;;;;;;;;5054744;28;20039;-72
2023/04/23 03:28:19;;;;;;;42.88;24.92;;;;;;;;;;5054475;28;20020;-72
2023/04/23 03:30:45;;;;;;;34.78;23.70;;;;;;;;;;5054678;28;20028;-71
2023/04/23 03:33:11;;;;;;;39.13;24.42;;;;;;;;;;5054465;28;20028;-71
2023/04/23 03:35:37;;;;;;;35.42;23.25;;;;;;;;;;5054520;28;20033;-71
2023/04/23 03:38:03;;;;;;;36.67;22.05;;;;;;;;;;5054405;28;20017;-71
2023/04/23 03:40:29;;;;;;;40.05;22.40;;;;;;;;;;5054466;28;20351;-73
2023/04/23 03:42:56;;;;;;;32.38;21.95;;;;;;;;;;5054227;28;20013;-72
2023/04/23 03:45:22;;;;;;;40.60;22.55;;;;;;;;;;5054422;28;20483;-75
2023/04/23 03:47:48;;;;;;;31.33;20.98;;;;;;;;;;5048632;28;20064;-73
2023/04/23 03:50:16;;;;;;;35.65;21.75;;;;;;;;;;5054154;28;20079;-73
2023/04/23 03:52:42;;;;;;;36.20;20.60;;;;;;;;;;5053759;28;20029;-72
2023/04/23 03:55:09;;;;;;;36.92;21.90;;;;;;;;;;5054158;28;20415;-72
2023/04/23 03:57:38;;;;;;;32.90;20.88;;;;;;;;;;5054075;28;20108;-72
2023/04/23 04:00:07;;;;;;;31.92;21.85;;;;;;;;;;5052973;28;20021;-72
2023/04/23 04:02:33;;;;;;;38.38;20.50;;;;;;;;;;5052746;28;20021;-72
2023/04/23 04:05:00;;;;;;;31.15;19.50;;;;;;;;;;5051993;28;20029;-72
2023/04/23 04:07:27;;;;;;;34.90;20.30;;;;;;;;;;5053084;28;20033;-72
2023/04/23 04:09:53;;;;;;;28.60;19.08;;;;;;;;;;5052744;28;20128;-74
2023/04/23 04:12:19;;;;;;;34.70;21.92;;;;;;;;;;5052590;28;20112;-72
2023/04/23 04:14:45;;;;;;;34.30;20.60;;;;;;;;;;5053051;28;20526;-72
2023/04/23 04:17:11;;;;;;;29.70;20.48;;;;;;;;;;5053179;28;20025;-72
2023/04/23 04:19:37;;;;;;;29.52;18.85;;;;;;;;;;5052749;28;20036;-73
2023/04/23 04:22:03;;;;;;;28.27;18.08;;;;;;;;;;5052374;28;20021;-72
2023/04/23 04:24:31;;;;;;;31.75;17.60;;;;;;;;;;5052624;28;20033;-72
2023/04/23 04:26:58;;;;;;;26.17;16.35;;;;;;;;;;5052647;28;20036;-72
2023/04/23 04:29:25;;;;;;;25.55;15.00;;;;;;;;;;5052605;28;20025;-71
2023/04/23 04:31:51;;;;;;;23.67;15.23;;;;;;;;;;5052215;28;20554;-72
2023/04/23 04:34:17;;;;;;;29.13;16.00;;;;;;;;;;5052673;28;20073;-72
2023/04/23 04:36:43;;;;;;;21.55;15.25;;;;;;;;;;5052781;28;20044;-73
2023/04/23 04:39:09;;;;;;;26.65;14.90;;;;;;;;;;5052999;28;20134;-73
2023/04/23 04:41:39;;;;;;;27.83;15.57;;;;;;;;;;5053977;28;20390;-73
2023/04/23 04:44:07;;;;;;;29.63;15.55;;;;;;;;;;5055101;28;20041;-73
2023/04/23 04:46:33;;;;;;;19.75;13.85;;;;;;;;;;5055603;28;20222;-72
2023/04/23 04:48:59;;;;;;;28.40;15.95;;;;;;;;;;5056185;28;20061;-71
2023/04/23 04:51:27;;;;;;;22.00;13.88;;;;;;;;;;5052551;28;20021;-72
2023/04/23 04:53:53;;;;;;;25.75;14.82;;;;;;;;;;5049336;28;20124;-74
2023/04/23 04:56:19;;;;;;;29.92;14.27;;;;;;;;;;5052807;28;20061;-73
2023/04/23 04:58:45;;;;;;;26.90;14.38;;;;;;;;;;5049479;28;20021;-73
2023/04/23 05:01:11;;;;;;;24.17;13.55;;;;;;;;;;5054546;28;20056;-73
2023/04/23 05:03:38;;;;;;;22.35;13.23;;;;;;;;;;5048154;28;20017;-72
2023/04/23 05:06:04;;;;;;;24.25;12.32;;;;;;;;;;5054450;28;20017;-73
2023/04/23 05:08:30;;;;;;;19.02;11.32;;;;;;;;;;5054461;28;20124;-73
2023/04/23 05:10:56;;;;;;;18.17;11.15;;;;;;;;;;5054409;28;20103;-73
2023/04/23 05:13:22;;;;;;;16.67;9.82;;;;;;;;;;5052848;28;20099;-73
2023/04/23 05:15:48;;;;;;;21.92;10.02;;;;;;;;;;5052275;28;20029;-72
2023/04/23 05:18:14;;;;;;;18.80;9.68;;;;;;;;;;5051707;28;20031;-74
2023/04/23 05:20:41;;;;;;;17.77;10.07;;;;;;;;;;5058303;28;20049;-73
2023/04/23 05:23:07;;;;;;;18.48;9.63;;;;;;;;;;5052307;28;20021;-74
2023/04/23 05:25:34;;;;;;;24.10;10.18;;;;;;;;;;5051612;28;20041;-71
2023/04/23 05:28:00;;;;;;;18.08;10.20;;;;;;;;;;5051311;28;20119;-71
2023/04/23 05:30:26;;;;;;;17.80;10.13;;;;;;;;;;5051976;28;20060;-71
2023/04/23 05:32:52;;;;;;;22.88;10.63;;;;;;;;;;5051692;28;20116;-72
2023/04/23 05:35:18;;;;;;;17.60;10.60;;;;;;;;;;5050965;28;20529;-74
2023/04/23 05:37:44;;;;;;;17.55;10.82;;;;;;;;;;5051281;28;20036;-72
2023/04/23 05:40:10;;;;;;;20.10;10.82;;;;;;;;;;5051165;28;20013;-72
2023/04/23 05:42:37;;;;;;;18.42;10.93;;;;;;;;;;5050873;28;20021;-72
2023/04/23 05:45:03;;;;;;;24.08;11.60;;;;;;;;;;5051127;28;20230;-73
2023/04/23 05:47:30;;;;;;;21.20;11.00;;;;;;;;;;5051887;28;20115;-72
2023/04/23 05:50:00;;;;;;;20.98;11.45;;;;;;;;;;5052004;28;20107;-72
2023/04/23 05:52:29;;;;;;;18.67;12.27;;;;;;;;;;5051708;28;20037;-71
2023/04/23 05:54:55;;;;;;;21.92;12.38;;;;;;;;;;5051679;28;20025;-71
2023/04/23 05:57:21;;;;;;;25.92;12.50;;;;;;;;;;5054434;28;20506;-72
2023/04/23 05:59:47;;;;;;;17.67;11.52;;;;;;;;;;5051669;28;20013;-71
2023/04/23 06:02:13;;;;;;;20.83;11.93;;;;;;;;;;5051731;28;20025;-72
2023/04/23 06:04:39;;;;;;;20.85;12.02;;;;;;;;;;5051516;28;20091;-72
2023/04/23 06:07:06;;;;;;;18.75;11.25;;;;;;;;;;5048596;28;20031;-74
2023/04/23 06:09:32;;;;;;;21.80;12.07;;;;;;;;;;5051461;28;20072;-74
2023/04/23 06:11:58;;;;;;;21.33;12.25;;;;;;;;;;5051335;28;20053;-72
2023/04/23 06:14:24;;;;;;;19.05;11.95;;;;;;;;;;5051487;28;20083;-74
2023/04/23 06:16:50;;;;;;;17.67;11.38;;;;;;;;;;5051453;28;20025;-75
2023/04/23 06:19:16;;;;;;;18.23;11.27;;;;;;;;;;5052081;28;20025;-72
2023/04/23 06:21:42;;;;;;;18.42;11.70;;;;;;;;;;5051864;28;20376;-73
2023/04/23 06:24:08;;;;;;;19.25;12.20;;;;;;;;;;5051864;28;20061;-73
2023/04/23 06:26:34;;;;;;;18.65;10.65;;;;;;;;;;5051835;28;20025;-72
2023/04/23 06:29:00;;;;;;;20.85;10.05;;;;;;;;;;5051850;28;20028;-72
2023/04/23 06:31:26;;;;;;;16.38;9.93;;;;;;;;;;5052671;28;20040;-73
2023/04/23 06:33:52;;;;;;;15.75;10.02;;;;;;;;;;5052069;28;20028;-71
2023/04/23 06:36:18;;;;;;;20.27;10.10;;;;;;;;;;5055183;28;20036;-75
2023/04/23 06:38:44;;;;;;;17.63;10.35;;;;;;;;;;5058710;28;20493;-73
2023/04/23 06:41:11;;;;;;;19.40;9.70;;;;;;;;;;5054028;28;20056;-71
2023/04/23 06:43:38;;;;;;;18.88;9.40;;;;;;;;;;5051558;28;20033;-71
2023/04/23 06:46:04;;;;;;;20.23;9.20;;;;;;;;;;5051317;28;20025;-72
2023/04/23 06:48:31;;;;;;;14.98;8.98;;;;;;;;;;5051405;28;20509;-71
2023/04/23 06:50:57;;;;;;;18.95;9.10;;;;;;;;;;5051445;28;20024;-71
2023/04/23 06:53:23;;;;;;;19.73;9.18;;;;;;;;;;5049982;28;20025;-75
2023/04/23 06:55:50;;;;;;;17.75;8.90;;;;;;;;;;5050208;28;20116;-72
2023/04/23 06:58:17;;;;;;;23.15;9.45;;;;;;;;;;5050241;28;20060;-72
2023/04/23 07:00:43;;;;;;;16.10;9.15;;;;;;;;;;5050384;28;20017;-71
2023/04/23 07:03:09;;;;;;;14.88;8.43;;;;;;;;;;5050154;28;20279;-72
2023/04/23 07:05:34;;;;;;;15.35;8.82;;;;;;;;;;5050078;28;20137;-71
2023/04/23 07:08:00;;;;;;;21.70;8.50;;;;;;;;;;5046107;28;20087;-70
2023/04/23 07:10:26;;;;;;;18.75;8.57;;;;;;;;;;5050163;28;20407;-71
2023/04/23 07:12:53;;;;;;;13.73;8.63;;;;;;;;;;5064994;28;20028;-71
2023/04/23 07:15:19;;;;;;;20.70;8.95;;;;;;;;;;5069929;28;20428;-70
2023/04/23 07:17:45;;;;;;;14.70;8.68;;;;;;;;;;5069487;28;20163;-70
2023/04/23 07:20:11;;;;;;;13.48;8.57;;;;;;;;;;5069507;28;20066;-71
2023/04/23 07:22:37;;;;;;;13.68;8.65;;;;;;;;;;5069368;28;20040;-70
2023/04/23 07:25:04;;;;;;;24.92;13.45;;;;;;;;;;5069858;28;20029;-71
2023/04/23 07:27:30;;;;;;;16.73;9.98;;;;;;;;;;5069755;28;20103;-72
2023/04/23 07:29:56;;;;;;;14.18;9.23;;;;;;;;;;5069734;28;20052;-70
2023/04/23 07:32:26;;;;;;;15.52;9.82;;;;;;;;;;5068863;28;20192;-71
2023/04/23 07:34:52;;;;;;;18.85;9.27;;;;;;;;;;5069764;28;20031;-71
2023/04/23 07:37:20;;;;;;;21.75;9.98;;;;;;;;;;5069575;28;20024;-71
2023/04/23 07:39:46;;;;;;;17.33;8.85;;;;;;;;;;5070151;28;20028;-72
2023/04/23 07:42:12;;;;;;;18.70;9.57;;;;;;;;;;5072810;28;20025;-72
2023/04/23 07:44:38;;;;;;;18.13;10.05;;;;;;;;;;5073523;28;20508;-72
2023/04/23 07:47:04;;;;;;;18.58;9.70;;;;;;;;;;5072573;28;20064;-71
2023/04/23 07:49:30;;;;;;;16.77;9.60;;;;;;;;;;5073482;28;20040;-72
2023/04/23 07:51:56;;;;;;;20.65;10.00;;;;;;;;;;5073017;28;20031;-72
2023/04/23 07:54:22;;;;;;;14.50;9.50;;;;;;;;;;5075150;28;20657;-71
2023/04/23 07:56:48;;;;;;;18.25;10.07;;;;;;;;;;5074910;28;20020;-72
2023/04/23 07:59:14;;;;;;;17.02;9.82;;;;;;;;;;5074035;28;20047;-71
2023/04/23 08:01:40;;;;;;;18.23;9.23;;;;;;;;;;5074070;28;20052;-72
2023/04/23 08:04:07;;;;;;;17.83;10.55;;;;;;;;;;5073930;28;20031;-71
2023/04/23 08:06:34;;;;;;;19.88;9.18;;;;;;;;;;5073944;28;20069;-72
2023/04/23 08:09:05;;;;;;;19.27;9.43;;;;;;;;;;5073749;28;20528;-71
2023/04/23 08:11:31;;;;;;;15.05;9.57;;;;;;;;;;5073981;28;20029;-72
2023/04/23 08:13:57;;;;;;;14.68;9.00;;;;;;;;;;5073062;28;20105;-72
2023/04/23 08:16:23;;;;;;;18.83;9.13;;;;;;;;;;5071966;28;20630;-72
2023/04/23 08:18:49;;;;;;;16.92;8.80;;;;;;;;;;5072457;28;20110;-72
2023/04/23 08:21:15;;;;;;;13.88;7.93;;;;;;;;;;5072790;28;20029;-75
2023/04/23 08:23:41;;;;;;;14.40;8.63;;;;;;;;;;5072473;28;20017;-72
2023/04/23 08:26:07;;;;;;;17.25;9.43;;;;;;;;;;5072858;28;20040;-72
2023/04/23 08:28:33;;;;;;;17.08;8.60;;;;;;;;;;5072857;28;20142;-72
2023/04/23 08:30:59;;;;;;;18.60;8.88;;;;;;;;;;5072931;28;20016;-72
2023/04/23 08:33:26;;;;;;;17.58;9.30;;;;;;;;;;5072490;28;20033;-73
2023/04/23 08:35:52;;;;;;;14.18;9.20;;;;;;;;;;5073018;28;20054;-73
2023/04/23 08:38:18;;;;;;;15.65;8.07;;;;;;;;;;5072223;28;20017;-74
2023/04/23 08:40:44;;;;;;;15.38;9.02;;;;;;;;;;5072217;28;20546;-73
2023/04/23 08:43:19;;;;;;;15.52;8.32;;;;;;;;;;5072071;28;20437;-73
2023/04/23 08:45:46;;;;;;;14.35;8.45;;;;;;;;;;5072425;28;20020;-74
2023/04/23 08:48:13;;;;;;;13.35;8.20;;;;;;;;;;5072253;28;20474;-72
2023/04/23 08:50:42;;;;;;;17.48;8.85;;;;;;;;;;5072081;28;20059;-73
2023/04/23 08:53:08;;;;;;;13.90;7.60;;;;;;;;;;5072038;28;20103;-72
2023/04/23 08:55:35;;;;;;;16.55;8.68;;;;;;;;;;5072523;28;20028;-73
2023/04/23 08:58:05;;;;;;;14.32;8.95;;;;;;;;;;5073036;28;20520;-72
2023/04/23 09:00:32;;;;;;;15.98;8.75;;;;;;;;;;5072470;28;20033;-71
2023/04/23 09:02:59;;;;;;;17.00;8.77;;;;;;;;;;5071513;28;20017;-73
2023/04/23 09:05:26;;;;;;;12.68;7.95;;;;;;;;;;5071860;28;20024;-74
2023/04/23 09:07:53;;;;;;;16.10;8.05;;;;;;;;;;5071694;28;20028;-74
2023/04/23 09:10:19;;;;;;;12.23;7.57;;;;;;;;;;5071715;28;20017;-72
2023/04/23 09:12:46;;;;;;;12.23;8.07;;;;;;;;;;5071480;28;20035;-72
2023/04/23 09:15:12;;;;;;;15.55;8.55;;;;;;;;;;5071803;28;20101;-72
2023/04/23 09:17:39;;;;;;;14.50;7.75;;;;;;;;;;5071248;28;20016;-71
2023/04/23 09:20:08;;;;;;;14.65;7.63;;;;;;;;;;5071440;28;20091;-72
2023/04/23 09:22:37;;;;;;;15.50;7.50;;;;;;;;;;5071374;28;20104;-73
2023/04/23 09:25:04;;;;;;;13.98;8.10;;;;;;;;;;5072042;28;20099;-72
2023/04/23 09:27:30;;;;;;;15.27;8.02;;;;;;;;;;5072583;28;20070;-72
2023/04/23 09:29:58;;;;;;;15.13;7.65;;;;;;;;;;5071968;28;20032;-72
2023/04/23 09:32:32;;;;;;;19.67;8.98;;;;;;;;;;5071809;28;20433;-73
2023/04/23 09:34:58;;;;;;;15.40;8.90;;;;;;;;;;5073011;28;20533;-72
2023/04/23 09:37:27;;;;;;;14.80;8.90;;;;;;;;;;5072775;28;20391;-72
2023/04/23 09:39:55;;;;;;;15.00;9.32;;;;;;;;;;5070644;28;20490;-70
2023/04/23 09:42:23;;;;;;;15.77;9.23;;;;;;;;;;5071374;28;20028;-73
2023/04/23 09:45:15;;;;;;;14.95;8.15;;;;;;;;;;5072385;28;20078;-72
2023/04/23 09:47:47;;;;;;;12.27;8.10;;;;;;;;;;5069306;28;20033;-72
2023/04/23 09:50:13;;;;;;;14.93;8.80;;;;;;;;;;5072379;28;20067;-72
2023/04/23 09:52:40;;;;;;;16.83;8.75;;;;;;;;;;5074360;28;20081;-73
2023/04/23 09:55:06;;;;;;;12.30;8.60;;;;;;;;;;5072085;28;20101;-73
2023/04/23 09:57:36;;;;;;;14.35;8.70;;;;;;;;;;5071773;28;20027;-73
2023/04/23 10:00:13;;;;;;;16.85;10.07;;;;;;;;;;5071924;28;20032;-73
2023/04/23 10:02:39;;;;;;;17.95;10.63;;;;;;;;;;5071253;28;20053;-73
2023/04/23 10:05:26;;;;;;;16.27;11.25;;;;;;;;;;5072610;28;20441;-73
2023/04/23 10:07:52;;;;;;;19.23;11.00;;;;;;;;;;5072278;28;20029;-73
2023/04/23 10:10:19;;;;;;;15.32;11.05;;;;;;;;;;5073795;28;20031;-73
2023/04/23 10:12:45;;;;;;;19.80;11.75;;;;;;;;;;5069646;28;20025;-72
2023/04/23 10:15:12;;;;;;;17.15;11.07;;;;;;;;;;5071119;28;20471;-73
2023/04/23 10:17:38;;;;;;;20.67;10.75;;;;;;;;;;5072205;28;20031;-73
2023/04/23 10:20:06;;;;;;;17.92;11.07;;;;;;;;;;5072426;28;20641;-72
2023/04/23 10:22:32;;;;;;;17.58;11.65;;;;;;;;;;5071871;28;20099;-72
2023/04/23 10:25:00;;;;;;;17.75;11.73;;;;;;;;;;5071812;28;20028;-71
2023/04/23 10:27:27;;;;;;;20.58;10.80;;;;;;;;;;5071744;28;20031;-73
2023/04/23 10:29:53;;;;;;;17.30;11.70;;;;;;;;;;5071628;28;20025;-72
2023/04/23 10:32:19;;;;;;;15.55;10.35;;;;;;;;;;5071402;28;20028;-72
2023/04/23 10:34:45;;;;;;;16.48;11.48;;;;;;;;;;5071433;28;20493;-72
2023/04/23 10:37:14;;;;;;;20.55;12.55;;;;;;;;;;5071525;28;20025;-73
2023/04/23 10:39:42;;;;;;;17.00;11.55;;;;;;;;;;5071283;28;20551;-72
2023/04/23 10:42:09;;;;;;;24.05;12.60;;;;;;;;;;5071081;28;20021;-72
2023/04/23 10:44:38;;;;;;;16.15;10.93;;;;;;;;;;5072014;28;20027;-72
2023/04/23 10:47:05;;;;;;;17.13;12.10;;;;;;;;;;5072489;28;20062;-72
2023/04/23 10:49:31;;;;;;;18.15;11.45;;;;;;;;;;5072192;28;20028;-73
2023/04/23 10:51:59;;;;;;;18.90;11.48;;;;;;;;;;5072418;28;20030;-73
2023/04/23 10:54:28;;;;;;;21.83;12.52;;;;;;;;;;5072630;28;20017;-73
2023/04/23 10:56:58;;;;;;;16.25;10.48;;;;;;;;;;5075618;28;20025;-74
2023/04/23 10:59:24;;;;;;;17.73;11.88;;;;;;;;;;5074394;28;20064;-72
2023/04/23 11:01:50;;;;;;;17.67;12.15;;;;;;;;;;5072518;28;20433;-72
2023/04/23 11:04:35;;;;;;;20.40;13.55;;;;;;;;;;5071071;28;20028;-72
2023/04/23 11:07:00;;;;;;;;;;;;;;;;;;5071296;28;20044;-73
2023/04/23 11:09:30;;;;;;;19.15;11.80;;;;;;;;;;5072476;28;20414;-74
2023/04/23 11:11:57;;;;;;;19.35;12.18;;;;;;;;;;5071545;28;20024;-73
2023/04/23 11:14:49;;;;;;;23.63;14.50;;;;;;;;;;5073556;28;20367;-72
2023/04/23 11:17:16;;;;;;;20.90;13.55;;;;;;;;;;5073219;28;20375;-73
2023/04/23 11:20:02;;;;;;;22.40;13.07;;;;;;;;;;5075130;28;20024;-72
2023/04/23 11:22:35;;;;;;;21.45;14.18;;;;;;;;;;5074834;28;20017;-72
2023/04/23 11:25:01;;;;;;;18.92;14.00;;;;;;;;;;5074781;28;20054;-73
2023/04/23 11:27:29;;;;;;;19.50;13.48;;;;;;;;;;5074733;28;20032;-75
2023/04/23 11:29:55;;;;;;;24.30;14.75;;;;;;;;;;5074569;28;20031;-72
2023/04/23 11:32:21;;;;;;;20.98;13.30;;;;;;;;;;5074670;28;20043;-73
2023/04/23 11:34:49;;;;;;;21.77;14.20;;;;;;;;;;5074411;28;20482;-76
2023/04/23 11:37:15;;;;;;;22.73;14.30;;;;;;;;;;5074424;28;20390;-72
2023/04/23 11:39:42;;;;;;;17.33;12.40;;;;;;;;;;5074248;28;20063;-74
2023/04/23 11:42:12;;;;;;;17.75;11.77;;;;;;;;;;5074310;28;20021;-73
2023/04/23 11:44:39;;;;;;;18.67;11.68;;;;;;;;;;5074437;28;20540;-74
2023/04/23 11:47:06;;;;;;;16.05;9.85;;;;;;;;;;5074568;28;20051;-72
2023/04/23 11:49:32;;;;;;;12.95;10.10;;;;;;;;;;5074415;28;20028;-72
2023/04/23 11:52:00;;;;;;;13.88;10.00;;;;;;;;;;5074049;28;20016;-72
2023/04/23 11:54:28;;;;;;;13.85;9.75;;;;;;;;;;5074354;28;20025;-72
2023/04/23 11:56:55;;;;;;;13.18;8.73;;;;;;;;;;5073935;28;20025;-73
2023/04/23 11:59:21;;;;;;;15.32;10.32;;;;;;;;;;5074046;28;20035;-72
2023/04/23 12:01:49;;;;;;;16.83;10.07;;;;;;;;;;5073585;28;20025;-73
2023/04/23 12:04:16;;;;;;;12.20;9.23;;;;;;;;;;5073886;28;20025;-74
2023/04/23 12:06:43;;;;;;;11.68;8.65;;;;;;;;;;5073530;28;20028;-73
2023/04/23 12:09:10;;;;;;;11.60;7.97;;;;;;;;;;5074032;28;20036;-71
2023/04/23 12:11:37;;;;;;;17.45;9.40;;;;;;;;;;5073782;28;20018;-73
2023/04/23 12:14:03;;;;;;;14.80;8.27;;;;;;;;;;5073598;28;20040;-72
2023/04/23 12:16:36;;;;;;;11.00;6.70;;;;;;;;;;5073976;28;20025;-73
2023/04/23 12:19:02;;;;;;;10.95;6.70;;;;;;;;;;5073763;28;20031;-73
2023/04/23 12:21:28;;;;;;;9.40;6.57;;;;;;;;;;5073545;28;20449;-72
2023/04/23 12:23:55;;;;;;;9.07;6.47;;;;;;;;;;5073446;28;20078;-71
2023/04/23 12:26:23;;;;;;;11.70;7.10;;;;;;;;;;5073229;28;20067;-71
2023/04/23 12:28:49;;;;;;;12.30;6.78;;;;;;;;;;5073967;28;20021;-72
2023/04/23 12:31:23;;;;;;;10.80;6.90;;;;;;;;;;5073854;28;20021;-73
2023/04/23 12:34:08;;;;;;;11.43;7.07;;;;;;;;;;5068734;28;20433;-76
2023/04/23 12:36:39;;;;;;;8.18;5.25;;;;;;;;;;5069837;28;20035;-73
2023/04/23 12:39:38;;;;;;;8.88;5.38;;;;;;;;;;5073402;28;20106;-74
2023/04/23 12:42:04;;;;;;;7.93;5.40;;;;;;;;;;5040119;28;20767;-73
2023/04/23 12:44:34;;;;;;;7.10;4.85;;;;;;;;;;5059129;28;20425;-72
2023/04/23 12:47:18;;;;;;;11.75;5.15;;;;;;;;;;5053559;28;20377;-72
2023/04/23 12:49:44;;;;;;;6.78;4.70;;;;;;;;;;5053333;28;20021;-72
2023/04/23 12:52:11;;;;;;;8.05;5.40;;;;;;;;;;5053081;28;20032;-73
2023/04/23 12:54:38;;;;;;;7.47;4.03;;;;;;;;;;5052856;28;20036;-72
2023/04/23 12:57:05;;;;;;;8.25;4.28;;;;;;;;;;5052785;28;20029;-73
2023/04/23 12:59:31;;;;;;;10.13;5.03;;;;;;;;;;5052942;28;20025;-73
2023/04/23 13:02:00;;;;;;;9.05;4.43;;;;;;;;;;5053070;28;20033;-73
2023/04/23 13:04:29;;;;;;;7.28;5.30;;;;;;;;;;5052909;28;20470;-72
2023/04/23 13:06:55;;;;;;;10.07;4.53;;;;;;;;;;5053931;28;20036;-75
2023/04/23 13:09:23;;;;;;;6.43;4.80;;;;;;;;;;5052600;28;20036;-73
2023/04/23 13:11:49;;;;;;;9.85;4.32;;;;;;;;;;5052840;28;20074;-72
2023/04/23 13:14:16;;;;;;;10.25;5.07;;;;;;;;;;5053668;28;20060;-73
2023/04/23 13:16:42;;;;;;;7.22;4.82;;;;;;;;;;5053195;28;20071;-73
2023/04/23 13:19:08;;;;;;;6.80;3.72;;;;;;;;;;5052629;28;20108;-71
2023/04/23 13:21:34;;;;;;;11.63;5.72;;;;;;;;;;5052322;28;20025;-72
2023/04/23 13:24:00;;;;;;;7.53;4.82;;;;;;;;;;5052056;28;20439;-72
2023/04/23 13:26:31;;;;;;;9.23;4.60;;;;;;;;;;5052325;28;20033;-73
2023/04/23 13:28:58;;;;;;;5.82;3.63;;;;;;;;;;5052341;28;20441;-72
2023/04/23 13:31:25;;;;;;;7.05;3.95;;;;;;;;;;5052791;28;20032;-71
2023/04/23 13:33:51;;;;;;;9.73;5.07;;;;;;;;;;5052268;28;20021;-72
2023/04/23 13:36:17;;;;;;;7.85;4.45;;;;;;;;;;5052308;28;20124;-72
2023/04/23 13:38:43;;;;;;;9.98;4.38;;;;;;;;;;5050952;28;20028;-73
2023/04/23 13:41:09;;;;;;;8.00;3.95;;;;;;;;;;5052065;28;20029;-71
2023/04/23 13:43:35;;;;;;;7.82;4.28;;;;;;;;;;5051965;28;20379;-73
2023/04/23 13:46:01;;;;;;;7.22;4.13;;;;;;;;;;5052078;28;20032;-72
2023/04/23 13:48:30;;;;;;;7.53;3.92;;;;;;;;;;5052054;28;20086;-72
2023/04/23 13:50:56;;;;;;;5.82;3.30;;;;;;;;;;5051701;28;20029;-71
2023/04/23 13:53:22;;;;;;;8.35;3.50;;;;;;;;;;5051469;28;20032;-73
2023/04/23 13:55:48;;;;;;;7.20;3.78;;;;;;;;;;5052049;28;20017;-72
2023/04/23 13:58:14;;;;;;;4.70;2.80;;;;;;;;;;5051974;28;20025;-72
2023/04/23 14:00:41;;;;;;;8.07;3.63;;;;;;;;;;5052140;28;20032;-71
2023/04/23 14:03:07;;;;;;;8.68;3.97;;;30.10;1.00;;;;;;5052546;28;20025;-73
2023/04/23 14:05:33;;;;;;;6.13;2.58;;;30.30;1.00;;;;;;5052623;28;20024;-71
2023/04/23 14:07:59;;;;;;;6.65;2.90;;;30.70;1.00;;;;;;5052018;28;20037;-74
2023/04/23 14:10:24;;;;;;;7.38;3.45;;;30.50;1.00;;;;;;5052510;28;20021;-75
2023/04/23 14:12:50;;;;;;;6.30;3.10;;;29.80;1.00;;;;;;5051542;28;20036;-73
2023/04/23 14:15:16;;;;;;;5.75;3.40;;;29.00;1.00;;;;;;5051724;28;20203;-72
2023/04/23 14:17:43;;;;;;;6.85;3.38;;;28.70;1.00;;;;;;5035421;28;20017;-73
2023/04/23 14:20:09;;;;;;;7.90;3.33;;;28.30;1.00;;;;;;5031039;28;20057;-73